createdAt,value
2023-01-01T00:01:31.085Z,26.30
2023-01-01T00:06:32.698Z,26.38
2023-01-01T00:09:21.295Z,25.13
2023-01-01T00:11:51.497Z,24.45
2023-01-01T00:14:21.881Z,24.55
2023-01-01T00:16:52.150Z,26.15
2023-01-01T00:19:22.424Z,26.30
2023-01-01T00:21:52.475Z,29.30
2023-01-01T00:24:22.783Z,29.25
2023-01-01T00:26:52.973Z,28.45
2023-01-01T00:29:23.142Z,29.15
2023-01-01T00:31:53.138Z,29.33
2023-01-01T00:34:23.209Z,28.25
2023-01-01T00:36:53.635Z,28.98
2023-01-01T00:39:23.997Z,29.20
2023-01-01T00:41:54.220Z,29.52
2023-01-01T00:44:24.578Z,29.20
2023-01-01T00:46:54.731Z,27.65
2023-01-01T00:49:24.716Z,28.30
2023-01-01T00:51:54.701Z,27.40
2023-01-01T00:54:24.985Z,26.33
2023-01-01T00:56:55.321Z,25.73
2023-01-01T00:59:28.987Z,25.13
2023-01-01T01:01:59.718Z,26.85
2023-01-01T01:04:30.130Z,27.27
2023-01-01T01:07:00.284Z,27.10
2023-01-01T01:09:30.299Z,26.48
2023-01-01T01:12:17.286Z,27.23
2023-01-01T01:14:49.772Z,28.92
2023-01-01T01:17:19.994Z,30.02
2023-01-01T01:19:50.245Z,29.40
2023-01-01T01:22:25.958Z,29.83
2023-01-01T01:24:59.940Z,31.88
2023-01-01T01:27:30.781Z,31.67
2023-01-01T01:30:01.193Z,31.48
2023-01-01T01:32:31.687Z,29.65
2023-01-01T01:35:03.002Z,31.15
2023-01-01T01:37:33.788Z,33.00
2023-01-01T01:40:04.338Z,31.08
2023-01-01T01:42:34.504Z,31.08
2023-01-01T01:45:05.808Z,33.92
2023-01-01T01:47:40.984Z,31.92
2023-01-01T01:50:19.448Z,31.15
2023-01-01T01:53:14.993Z,28.48
2023-01-01T01:55:53.429Z,30.70
2023-01-01T01:58:31.833Z,31.45
2023-01-01T02:01:03.208Z,26.67
2023-01-01T02:06:08.208Z,21.38
2023-01-01T02:08:38.836Z,21.55
2023-01-01T02:11:09.525Z,19.90
2023-01-01T02:13:42.186Z,21.85
2023-01-01T02:16:28.269Z,20.33
2023-01-01T02:19:19.822Z,20.77
2023-01-01T02:22:04.926Z,21.92
2023-01-01T02:24:55.777Z,22.52
2023-01-01T02:27:26.059Z,25.65
2023-01-01T02:30:08.356Z,25.15
2023-01-01T02:32:57.421Z,29.00
2023-01-01T02:36:22.491Z,27.55
2023-01-01T02:38:59.266Z,28.27
2023-01-01T02:41:34.290Z,28.85
2023-01-01T02:46:35.596Z,25.13
2023-01-01T02:49:10.598Z,23.77
2023-01-01T02:52:02.106Z,21.77
2023-01-01T02:55:02.241Z,21.73
2023-01-01T02:57:52.219Z,20.58
2023-01-01T03:00:33.905Z,21.23
2023-01-01T03:03:42.380Z,20.25
2023-01-01T03:06:45.693Z,19.30
2023-01-01T03:09:58.384Z,19.58
2023-01-01T03:12:45.835Z,17.48
2023-01-01T03:15:30.501Z,19.60
2023-01-01T03:18:05.800Z,18.63
2023-01-01T03:20:41.844Z,18.30
2023-01-01T03:23:20.514Z,19.35
2023-01-01T03:25:57.266Z,19.13
2023-01-01T03:28:37.800Z,18.38
2023-01-01T03:31:09.066Z,18.70
2023-01-01T03:33:47.473Z,17.67
2023-01-01T03:36:26.325Z,17.00
2023-01-01T03:39:39.858Z,17.23
2023-01-01T03:42:21.654Z,15.80
2023-01-01T03:47:32.790Z,15.82
2023-01-01T03:50:04.723Z,15.98
2023-01-01T03:52:46.518Z,16.17
2023-01-01T03:55:34.709Z,17.08
2023-01-01T03:58:17.886Z,17.60
2023-01-01T04:01:03.670Z,17.00
2023-01-01T04:03:36.445Z,18.13
2023-01-01T04:06:07.964Z,18.20
2023-01-01T04:11:32.190Z,19.25
2023-01-01T04:14:04.830Z,18.40
2023-01-01T04:16:35.826Z,18.50
2023-01-01T04:19:09.252Z,18.42
2023-01-01T04:21:39.576Z,18.25
2023-01-01T04:24:09.957Z,18.13
2023-01-01T04:26:40.150Z,17.55
2023-01-01T04:29:10.595Z,18.70
2023-01-01T04:31:40.703Z,16.55
2023-01-01T04:34:11.166Z,19.17
2023-01-01T04:36:41.441Z,19.40
2023-01-01T04:39:11.857Z,20.35
2023-01-01T04:41:42.098Z,21.77
2023-01-01T04:44:12.289Z,21.08
2023-01-01T04:46:42.624Z,20.20
2023-01-01T04:49:12.750Z,21.25
2023-01-01T04:51:43.259Z,19.17
2023-01-01T04:54:13.557Z,19.50
2023-01-01T04:56:43.824Z,18.95
2023-01-01T04:59:14.413Z,17.45
2023-01-01T05:01:44.887Z,16.95
2023-01-01T05:04:19.217Z,16.75
2023-01-01T05:06:52.139Z,15.65
2023-01-01T05:09:22.398Z,16.10
2023-01-01T05:11:52.885Z,14.70
2023-01-01T05:14:23.104Z,13.07
2023-01-01T05:16:53.457Z,13.82
2023-01-01T05:19:23.758Z,13.43
2023-01-01T05:21:54.149Z,13.25
2023-01-01T05:24:24.261Z,13.35
2023-01-01T05:26:55.810Z,12.95
2023-01-01T05:29:26.549Z,13.38
2023-01-01T05:31:56.996Z,12.43
2023-01-01T05:36:58.618Z,11.10
2023-01-01T05:39:29.068Z,12.10
2023-01-01T05:42:02.152Z,10.82
2023-01-01T05:44:32.330Z,11.90
2023-01-01T05:47:02.668Z,12.05
2023-01-01T05:49:32.939Z,11.13
2023-01-01T05:52:03.540Z,12.75
2023-01-01T05:54:33.624Z,11.75
2023-01-01T05:57:03.748Z,11.70
2023-01-01T05:59:33.820Z,11.48
2023-01-01T06:02:03.904Z,10.98
2023-01-01T06:04:34.063Z,11.23
2023-01-01T06:07:04.139Z,10.82
2023-01-01T06:09:34.150Z,11.60
2023-01-01T06:12:04.266Z,11.20
2023-01-01T06:14:34.381Z,10.75
2023-01-01T06:17:04.835Z,11.52
2023-01-01T06:19:34.963Z,11.33
2023-01-01T06:22:05.078Z,10.85
2023-01-01T06:24:39.164Z,10.40
2023-01-01T06:27:09.673Z,9.93
2023-01-01T06:29:39.811Z,10.43
2023-01-01T06:32:09.837Z,10.43
2023-01-01T06:34:39.865Z,10.23
2023-01-01T06:37:09.886Z,10.82
2023-01-01T06:39:40.107Z,11.48
2023-01-01T06:42:10.258Z,11.07
2023-01-01T06:44:40.287Z,11.73
2023-01-01T06:47:10.888Z,11.15
2023-01-01T06:49:41.103Z,11.70
2023-01-01T06:52:13.360Z,11.50
2023-01-01T06:54:43.588Z,11.52
2023-01-01T06:57:13.752Z,11.00
2023-01-01T06:59:43.968Z,10.93
2023-01-01T07:02:14.941Z,11.25
2023-01-01T07:04:45.766Z,11.15
2023-01-01T07:07:15.915Z,10.37
2023-01-01T07:09:45.883Z,9.75
2023-01-01T07:12:17.017Z,10.93
2023-01-01T07:14:47.205Z,10.68
2023-01-01T07:17:17.544Z,11.00
2023-01-01T07:19:47.759Z,10.75
2023-01-01T07:22:18.272Z,11.30
2023-01-01T07:24:50.582Z,11.73
2023-01-01T07:27:21.029Z,12.35
2023-01-01T07:29:51.206Z,10.68
2023-01-01T07:32:21.416Z,18.30
2023-01-01T07:34:52.116Z,13.73
2023-01-01T07:37:22.773Z,16.57
2023-01-01T07:39:52.950Z,14.37
2023-01-01T07:42:23.176Z,14.40
2023-01-01T07:44:53.294Z,14.10
2023-01-01T07:47:29.605Z,12.30
2023-01-01T07:50:00.422Z,14.45
2023-01-01T07:52:32.599Z,15.77
2023-01-01T07:55:02.842Z,12.95
2023-01-01T07:57:32.913Z,13.13
2023-01-01T08:00:02.934Z,13.75
2023-01-01T08:02:42.879Z,12.93
2023-01-01T08:05:13.682Z,23.83
2023-01-01T08:07:49.374Z,30.20
2023-01-01T08:10:22.531Z,18.90
2023-01-01T08:12:53.460Z,14.05
2023-01-01T08:15:48.452Z,12.95
2023-01-01T08:18:18.651Z,14.45
2023-01-01T08:20:48.837Z,13.85
2023-01-01T08:23:18.882Z,18.17
2023-01-01T08:25:48.853Z,18.80
2023-01-01T08:28:18.959Z,15.93
2023-01-01T08:30:49.090Z,15.75
2023-01-01T08:33:19.235Z,16.38
2023-01-01T08:35:53.879Z,19.05
2023-01-01T08:38:24.724Z,15.15
2023-01-01T08:40:55.632Z,21.35
2023-01-01T08:43:27.773Z,27.90
2023-01-01T08:45:57.879Z,40.85
2023-01-01T08:48:30.898Z,30.60
2023-01-01T08:51:03.571Z,41.25
2023-01-01T08:53:35.281Z,30.90
2023-01-01T08:56:08.609Z,31.98
2023-01-01T08:58:40.723Z,34.03
2023-01-01T09:01:12.896Z,30.92
2023-01-01T09:03:43.161Z,32.95
2023-01-01T09:06:13.468Z,27.30
2023-01-01T09:08:43.689Z,27.63
2023-01-01T09:11:28.825Z,29.00
2023-01-01T09:13:59.207Z,27.60
2023-01-01T09:16:29.485Z,24.58
2023-01-01T09:19:00.088Z,24.83
2023-01-01T09:21:30.588Z,28.73
2023-01-01T09:24:00.744Z,30.35
2023-01-01T09:26:31.043Z,26.65
2023-01-01T09:29:02.343Z,25.15
2023-01-01T09:31:32.736Z,22.20
2023-01-01T09:34:03.035Z,22.52
2023-01-01T09:36:35.077Z,24.08
2023-01-01T09:39:05.438Z,22.48
2023-01-01T09:41:48.734Z,22.65
2023-01-01T09:44:37.203Z,22.42
2023-01-01T09:47:16.269Z,21.20
2023-01-01T09:49:48.495Z,21.13
2023-01-01T09:52:21.331Z,21.67
2023-01-01T09:55:06.052Z,19.70
2023-01-01T09:57:36.493Z,18.65
2023-01-01T10:00:17.195Z,19.10
2023-01-01T10:02:53.818Z,19.40
2023-01-01T10:06:08.200Z,21.98
2023-01-01T10:09:02.912Z,21.08
2023-01-01T10:11:57.402Z,21.35
2023-01-01T10:14:49.125Z,18.45
2023-01-01T10:20:27.215Z,21.92
2023-01-01T10:23:03.469Z,22.60
2023-01-01T10:25:36.879Z,21.92
2023-01-01T10:28:39.278Z,23.08
2023-01-01T10:31:32.620Z,21.98
2023-01-01T10:34:25.028Z,26.50
2023-01-01T10:36:58.313Z,23.00
2023-01-01T10:39:29.385Z,25.83
2023-01-01T10:42:02.245Z,29.92
2023-01-01T10:44:35.857Z,26.23
2023-01-01T10:47:31.081Z,26.02
2023-01-01T10:50:09.956Z,24.40
2023-01-01T10:52:42.904Z,22.92
2023-01-01T10:55:28.333Z,23.73
2023-01-01T10:57:58.780Z,22.08
2023-01-01T11:00:31.414Z,21.75
2023-01-01T11:03:24.145Z,22.55
2023-01-01T11:06:38.839Z,23.83
2023-01-01T11:09:30.345Z,25.60
2023-01-01T11:12:11.765Z,24.08
2023-01-01T11:14:57.617Z,22.17
2023-01-01T11:17:31.884Z,23.65
2023-01-01T11:20:04.502Z,23.08
2023-01-01T11:22:44.397Z,21.85
2023-01-01T11:25:20.631Z,22.63
2023-01-01T11:27:53.691Z,22.98
2023-01-01T11:30:31.048Z,22.30
2023-01-01T11:33:05.873Z,24.83
2023-01-01T11:35:50.710Z,22.45
2023-01-01T11:38:29.487Z,19.45
2023-01-01T11:41:08.653Z,20.65
2023-01-01T11:43:49.646Z,21.00
2023-01-01T11:46:27.146Z,18.37
2023-01-01T11:48:57.503Z,18.33
2023-01-01T11:51:34.083Z,19.10
2023-01-01T11:54:35.328Z,19.40
2023-01-01T11:57:17.403Z,20.23
2023-01-01T11:59:59.071Z,20.23
2023-01-01T12:02:40.893Z,20.20
2023-01-01T12:05:48.276Z,19.10
2023-01-01T12:08:25.907Z,18.13
2023-01-01T12:11:02.873Z,19.20
2023-01-01T12:13:44.773Z,19.48
2023-01-01T12:16:26.766Z,19.70
2023-01-01T12:19:12.227Z,20.20
2023-01-01T12:21:52.525Z,19.40
2023-01-01T12:24:23.617Z,21.00
2023-01-01T12:27:08.553Z,22.30
2023-01-01T12:30:06.859Z,20.33
2023-01-01T12:33:08.539Z,21.13
2023-01-01T12:38:26.751Z,22.00
2023-01-01T12:41:23.256Z,21.70
2023-01-01T12:44:30.030Z,23.67
2023-01-01T12:47:06.057Z,20.85
2023-01-01T12:49:36.949Z,23.95
2023-01-01T12:52:41.901Z,24.98
2023-01-01T12:55:39.078Z,26.33
2023-01-01T12:58:35.038Z,29.63
2023-01-01T13:01:14.009Z,29.35
2023-01-01T13:03:51.299Z,27.00
2023-01-01T13:06:34.201Z,25.42
2023-01-01T13:09:14.333Z,25.40
2023-01-01T13:11:46.537Z,24.48
2023-01-01T13:14:16.986Z,25.65
2023-01-01T13:16:58.641Z,28.00
2023-01-01T13:22:31.025Z,26.52
2023-01-01T13:25:07.102Z,25.80
2023-01-01T13:28:16.151Z,25.63
2023-01-01T13:30:46.277Z,24.98
2023-01-01T13:33:34.599Z,25.20
2023-01-01T13:36:10.772Z,25.00
2023-01-01T13:38:51.968Z,24.55
2023-01-01T13:41:39.016Z,23.67
2023-01-01T13:44:10.773Z,24.13
2023-01-01T13:46:40.964Z,25.45
2023-01-01T13:49:29.890Z,26.00
2023-01-01T13:52:21.370Z,26.58
2023-01-01T13:55:27.170Z,27.30
2023-01-01T13:58:32.397Z,25.52
2023-01-01T14:01:30.038Z,26.52
2023-01-01T14:04:03.077Z,26.02
2023-01-01T14:06:39.417Z,25.52
2023-01-01T14:09:15.701Z,27.05
2023-01-01T14:11:45.878Z,25.77
2023-01-01T14:14:31.602Z,25.55
2023-01-01T14:17:04.567Z,26.05
2023-01-01T14:19:35.357Z,27.02
2023-01-01T14:22:10.890Z,27.10
2023-01-01T14:24:45.703Z,27.05
2023-01-01T14:27:23.208Z,28.85
2023-01-01T14:29:56.668Z,28.27
